Miami, Florida
Traffic Map
Current Weather Conditions
Miami, Florida
Broken Clouds
Broken Clouds
89°
Feels Like: 96°
Wind Chill: 89° Ceiling: 25000
Heat Index: 96° Visibility: 10mi
Dew Point: 72° Wind: 6mph
Humidity: 57% Direction: 320° (NW)
Pressure: 30.03in Gusts: 0mph
Raw Report DataKMIA 222253Z COR 32005KT 10SM FEW038TCU SCT050 SCT150 BKN250 32/22 A3003 RMK AO2 SLP169 TCU NE-E T03170222
Traffic Incident Summary
Active as of:
Severity:
Category:
InformationThere was an issue retrieving the traffic information for this location. Please try a different location or try again shortly.
Advertisements
Track Severe Weather on mobile